Roseau, MN

2:48 AM CST on December 07, 2016 (GMT -0600)
Roseau Municipal-Billberg | | Change Station
Active Advisory: Winter Weather Advisory

Elev 1060 ft 48.86 °N, 95.70 °W | Updated 13 minutes ago

Light Snow
Light Snow
23 °F
Feels Like 8 °F
N
20
Wind Variable Wind from West
Gusts 25 mph

Today
High -- | Low -- °F
--% Chance of Precip.
Yesterday
High -- | Low -- °F
Precip. -- in
Pressure 29.59 in
Visibility 2.5 miles
Clouds Scattered Clouds 1200 ft
Mostly Cloudy 1600 ft
Overcast 2500 ft
Windchill 8 °F
Dew Point 18 °F
Humidity 80%
Rainfall 0.00 in
Snow Depth Not available.
8:02 AM 4:26 PM
Waxing Crescent, 50% visible
METAR KROX 070835Z AUTO 28017G22KT 2 1/2SM -SN SCT012 BKN016 OVC025 M05/M08 A2959 RMK AO2
Pressure 29.59 in
Visibility 2.5 miles
Clouds Scattered Clouds 1200 ft
Mostly Cloudy 1600 ft
Overcast 2500 ft
Windchill 8 °F
Dew Point 18 °F
Humidity 80%
Rainfall 0.00 in
Snow Depth Not available.
8:02 AM 4:26 PM
Waxing Crescent, 50% visible
METAR KROX 070835Z AUTO 28017G22KT 2 1/2SM -SN SCT012 BKN016 OVC025 M05/M08 A2959 RMK AO2

10-Day Weather Forecast

Almanac

Astronomy

Dec. 07, 2016 Rise Set
Actual Time
Civil Twilight
Nautical Twilight
Astronomical Twilight
Moon
Length of Visible Light
Length of Day
Tomorrow will be .
, % of the Moon is Illuminated

Today's Extremes

State Highs State Lows

Community

WunderPhotos

Upload Photos

1,956,104 photos uploaded!

WunderBlog® & News

Nearby

Air Quality

  Air Quality AQ Index Pollutant
Not available.

Snow Depth

Station Depth Elevation

Earthquake Activity

City Distance Mag. Time & Date
Minimum magnitude displayed is 2.5.

Coastal Water Temperatures

Place Temperature

Stations

Nearby Weather Stations

Station Location Temp. Windchill Dew Point Humidity Wind Precip. Elev Updated Type
                   

Watches & Warnings

Winter Weather Advisory
Issued: 7:24 PM CST Dec. 6, 2016 – National Weather Service

... Winter Weather Advisory in effect until 9 am CST Wednesday...
... Winter Storm Warning is cancelled...

The National Weather Service in Grand Forks has issued a Winter
Weather Advisory for snow and blowing snow... which is in effect
until 9 am CST Wednesday. The Winter Storm Warning has been
cancelled.

* Timing... tonight into Wednesday morning.

* Additional snow accumulations... 1 to 2 inches.

* Winds... northwest 20 to 30 mph with gusts up to 40 mph.

* Visibilities... one half mile or less at times.

Precautionary/preparedness actions...

A Winter Weather Advisory means that periods of snow will cause
travel difficulties. Be prepared for slippery roads and limited
visibilities... and use caution while driving. The latest Road
conditions for the state you are calling from can be obtained by
calling 5 1 1.